createdAt,value
2023-08-03T00:00:17.849Z,16.49
2023-08-03T00:01:19.540Z,16.70
2023-08-03T00:02:22.203Z,16.74
2023-08-03T00:03:26.581Z,16.81
2023-08-03T00:04:28.504Z,16.83
2023-08-03T00:05:32.728Z,16.81
2023-08-03T00:06:34.452Z,16.83
2023-08-03T00:07:36.212Z,16.87
2023-08-03T00:08:37.789Z,16.74
2023-08-03T00:09:41.148Z,16.91
2023-08-03T00:10:42.859Z,16.88
2023-08-03T00:11:44.854Z,16.91
2023-08-03T00:12:49.758Z,16.95
2023-08-03T00:13:51.451Z,16.96
2023-08-03T00:14:53.893Z,16.99
2023-08-03T00:15:56.584Z,16.96
2023-08-03T00:16:58.290Z,17.01
2023-08-03T00:17:59.992Z,16.99
2023-08-03T00:19:01.655Z,17.05
2023-08-03T00:20:05.691Z,17.06
2023-08-03T00:21:07.509Z,17.08
2023-08-03T00:22:09.494Z,16.98
2023-08-03T00:23:11.138Z,17.09
2023-08-03T00:24:12.727Z,17.06
2023-08-03T00:25:14.694Z,17.16
2023-08-03T00:26:16.411Z,17.23
2023-08-03T00:27:18.041Z,17.16
2023-08-03T00:28:22.362Z,17.23
2023-08-03T00:29:24.140Z,17.27
2023-08-03T00:30:25.746Z,17.21
2023-08-03T00:31:29.549Z,17.26
2023-08-03T00:32:33.525Z,17.25
2023-08-03T00:33:35.362Z,17.31
2023-08-03T00:34:39.205Z,17.26
2023-08-03T00:35:43.411Z,17.23
2023-08-03T00:36:45.046Z,17.16
2023-08-03T00:37:46.698Z,17.11
2023-08-03T00:38:49.734Z,17.24
2023-08-03T00:39:54.210Z,17.20
2023-08-03T00:40:55.891Z,17.28
2023-08-03T00:41:59.289Z,17.21
2023-08-03T00:43:05.310Z,17.15
2023-08-03T00:44:07.001Z,17.11
2023-08-03T00:45:10.490Z,17.07
2023-08-03T00:46:12.281Z,17.34
2023-08-03T00:47:16.522Z,17.34
2023-08-03T00:48:20.331Z,17.42
2023-08-03T00:49:28.616Z,17.38
2023-08-03T00:50:32.782Z,17.29
2023-08-03T00:51:34.834Z,17.42
2023-08-03T00:52:39.708Z,17.44
2023-08-03T00:53:47.018Z,17.49
2023-08-03T00:54:50.477Z,17.37
2023-08-03T00:55:52.074Z,17.26
2023-08-03T00:56:54.697Z,17.42
2023-08-03T00:57:56.402Z,17.36
2023-08-03T00:58:58.012Z,17.27
2023-08-03T00:59:59.973Z,17.38
2023-08-03T01:01:04.488Z,17.35
2023-08-03T01:02:07.040Z,17.34
2023-08-03T01:03:08.795Z,17.24
2023-08-03T01:04:10.967Z,17.14
2023-08-03T01:05:12.757Z,17.24
2023-08-03T01:06:14.552Z,17.31
2023-08-03T01:07:18.724Z,17.20
2023-08-03T01:08:20.516Z,17.35
2023-08-03T01:09:22.066Z,17.27
2023-08-03T01:10:23.851Z,17.34
2023-08-03T01:11:27.946Z,17.40
2023-08-03T01:12:32.723Z,17.34
2023-08-03T01:13:34.542Z,17.28
2023-08-03T01:14:36.348Z,17.08
2023-08-03T01:15:38.067Z,17.25
2023-08-03T01:16:45.251Z,17.16
2023-08-03T01:17:49.452Z,17.01
2023-08-03T01:18:52.146Z,17.12
2023-08-03T01:19:53.910Z,17.17
2023-08-03T01:20:57.046Z,17.22
2023-08-03T01:22:03.460Z,17.19
2023-08-03T01:23:06.219Z,17.20
2023-08-03T01:24:08.516Z,17.13
2023-08-03T01:25:11.306Z,17.11
2023-08-03T01:26:15.226Z,17.15
2023-08-03T01:27:16.886Z,17.17
2023-08-03T01:28:18.493Z,17.13
2023-08-03T01:29:20.057Z,17.01
2023-08-03T01:30:24.560Z,16.94
2023-08-03T01:31:26.261Z,17.06
2023-08-03T01:32:27.955Z,16.98
2023-08-03T01:33:29.739Z,17.05
2023-08-03T01:34:31.506Z,16.90
2023-08-03T01:35:33.409Z,16.83
2023-08-03T01:36:35.392Z,16.88
2023-08-03T01:37:37.228Z,16.93
2023-08-03T01:38:41.303Z,16.95
2023-08-03T01:39:46.400Z,17.00
2023-08-03T01:40:48.132Z,16.91
2023-08-03T01:41:49.971Z,16.83
2023-08-03T01:42:53.745Z,16.95
2023-08-03T01:44:22.585Z,16.85
2023-08-03T01:45:24.548Z,16.86
2023-08-03T01:46:26.191Z,16.83
2023-08-03T01:47:27.904Z,16.92
2023-08-03T01:48:29.658Z,16.93
2023-08-03T01:49:32.655Z,16.87
2023-08-03T01:50:35.527Z,16.95
2023-08-03T01:51:41.598Z,16.90
2023-08-03T01:52:43.602Z,16.86
2023-08-03T01:53:47.622Z,16.78
2023-08-03T01:54:49.256Z,16.76
2023-08-03T01:55:51.153Z,16.84
2023-08-03T01:56:56.295Z,16.88
2023-08-03T01:57:58.201Z,16.86
2023-08-03T01:58:59.826Z,16.63
2023-08-03T02:00:01.551Z,16.77
2023-08-03T02:01:03.890Z,16.73
2023-08-03T02:02:05.979Z,16.76
2023-08-03T02:03:10.215Z,16.76
2023-08-03T02:04:15.561Z,16.72
2023-08-03T02:05:18.568Z,16.68
2023-08-03T02:06:21.506Z,16.61
2023-08-03T02:07:54.330Z,16.65
2023-08-03T02:08:58.599Z,16.54
2023-08-03T02:10:05.376Z,16.39
2023-08-03T02:11:07.102Z,16.42
2023-08-03T02:12:08.941Z,16.53
2023-08-03T02:13:10.700Z,16.55
2023-08-03T02:14:14.899Z,16.53
2023-08-03T02:15:17.407Z,16.60
2023-08-03T02:16:25.338Z,16.47
2023-08-03T02:17:30.218Z,16.54
2023-08-03T02:18:34.169Z,16.51
2023-08-03T02:19:39.024Z,16.55
2023-08-03T02:20:42.858Z,16.56
2023-08-03T02:21:44.719Z,16.58
2023-08-03T02:22:46.951Z,16.41
2023-08-03T02:23:48.620Z,16.32
2023-08-03T02:24:50.206Z,16.37
2023-08-03T02:25:52.410Z,16.41
2023-08-03T02:26:54.043Z,16.43
2023-08-03T02:27:55.742Z,16.46
2023-08-03T02:28:59.869Z,16.50
2023-08-03T02:30:02.483Z,16.48
2023-08-03T02:31:08.413Z,16.52
2023-08-03T02:32:20.790Z,16.53
2023-08-03T02:33:26.678Z,16.54
2023-08-03T02:34:28.396Z,16.51
2023-08-03T02:35:35.487Z,16.42
2023-08-03T02:36:37.258Z,16.22
2023-08-03T02:37:43.634Z,16.10
2023-08-03T02:38:51.489Z,16.27
2023-08-03T02:39:54.030Z,16.34
2023-08-03T02:41:02.858Z,16.29
2023-08-03T02:42:07.775Z,16.29
2023-08-03T02:43:13.408Z,16.26
2023-08-03T02:44:20.994Z,16.36
2023-08-03T02:45:27.382Z,16.19
2023-08-03T02:46:31.651Z,16.27
2023-08-03T02:47:34.027Z,16.16
2023-08-03T02:48:40.622Z,16.16
2023-08-03T02:49:42.294Z,16.06
2023-08-03T02:50:44.130Z,16.07
2023-08-03T02:51:48.517Z,16.19
2023-08-03T02:52:52.772Z,16.23
2023-08-03T02:53:54.782Z,16.24
2023-08-03T02:54:59.247Z,16.23
2023-08-03T02:56:01.114Z,16.27
2023-08-03T02:57:07.691Z,16.28
2023-08-03T02:58:09.722Z,16.22
2023-08-03T02:59:12.118Z,16.21
2023-08-03T03:00:18.812Z,16.28
2023-08-03T03:01:23.649Z,16.29
2023-08-03T03:02:28.692Z,16.21
2023-08-03T03:03:30.869Z,16.09
2023-08-03T03:04:32.732Z,16.22
2023-08-03T03:05:34.424Z,16.12
2023-08-03T03:06:36.148Z,16.21
2023-08-03T03:07:40.237Z,16.11
2023-08-03T03:08:42.062Z,16.10
2023-08-03T03:09:43.707Z,15.98
2023-08-03T03:10:45.438Z,16.18
2023-08-03T03:11:47.138Z,16.04
2023-08-03T03:12:49.935Z,16.22
2023-08-03T03:13:51.690Z,16.25
2023-08-03T03:14:56.482Z,16.08
2023-08-03T03:15:58.281Z,16.11
2023-08-03T03:17:03.301Z,16.03
2023-08-03T03:18:05.149Z,16.06
2023-08-03T03:19:06.715Z,15.99
2023-08-03T03:20:08.948Z,15.94
2023-08-03T03:21:10.750Z,15.89
2023-08-03T03:22:12.602Z,16.02
2023-08-03T03:23:18.128Z,15.96
2023-08-03T03:24:22.015Z,16.03
2023-08-03T03:25:23.710Z,16.08
2023-08-03T03:26:27.844Z,16.02
2023-08-03T03:27:32.174Z,16.01
2023-08-03T03:28:33.836Z,16.01
2023-08-03T03:29:35.516Z,15.94
2023-08-03T03:30:37.150Z,15.90
2023-08-03T03:31:38.756Z,15.90
2023-08-03T03:32:40.655Z,15.96
2023-08-03T03:33:42.369Z,16.01
2023-08-03T03:34:49.967Z,15.98
2023-08-03T03:35:53.979Z,15.99
2023-08-03T03:36:55.655Z,15.90
2023-08-03T03:37:59.690Z,15.97
2023-08-03T03:39:03.855Z,15.85
2023-08-03T03:40:06.840Z,15.85
2023-08-03T03:41:13.953Z,15.71
2023-08-03T03:42:18.766Z,15.80
2023-08-03T03:43:20.317Z,15.65
2023-08-03T03:44:27.727Z,15.82
2023-08-03T03:45:30.606Z,15.83
2023-08-03T03:46:32.384Z,15.83
2023-08-03T03:47:34.293Z,15.77
2023-08-03T03:48:37.253Z,15.85
2023-08-03T03:49:40.109Z,15.83
2023-08-03T03:50:41.840Z,15.74
2023-08-03T03:51:43.972Z,15.78
2023-08-03T03:52:46.364Z,15.70
2023-08-03T03:53:51.776Z,15.61
2023-08-03T03:54:55.966Z,15.74
2023-08-03T03:55:58.777Z,15.73
2023-08-03T03:57:01.781Z,15.70
2023-08-03T03:58:07.821Z,15.78
2023-08-03T03:59:10.480Z,15.72
2023-08-03T04:00:14.049Z,15.70
2023-08-03T04:01:18.443Z,15.70
2023-08-03T04:02:20.944Z,15.72
2023-08-03T04:03:25.236Z,15.65
2023-08-03T04:04:29.728Z,15.78
2023-08-03T04:05:32.992Z,15.78
2023-08-03T04:06:37.001Z,15.65
2023-08-03T04:07:42.003Z,15.66
2023-08-03T04:08:43.579Z,15.58
2023-08-03T04:09:45.166Z,15.70
2023-08-03T04:11:48.537Z,15.66
2023-08-03T04:12:50.876Z,15.64
2023-08-03T04:13:58.286Z,15.63
2023-08-03T04:15:02.123Z,15.66
2023-08-03T04:16:04.059Z,15.65
2023-08-03T04:17:07.992Z,15.68
2023-08-03T04:19:13.106Z,15.67
2023-08-03T04:20:14.826Z,15.58
2023-08-03T04:21:20.502Z,15.62
2023-08-03T04:22:22.122Z,15.57
2023-08-03T04:23:23.712Z,15.59
2023-08-03T04:25:29.387Z,15.65
2023-08-03T04:26:36.003Z,15.69
2023-08-03T04:27:39.678Z,15.70
2023-08-03T04:28:43.975Z,15.74
2023-08-03T04:29:46.622Z,15.77
2023-08-03T04:30:48.362Z,15.73
2023-08-03T04:31:49.908Z,15.52
2023-08-03T04:32:52.095Z,15.66
2023-08-03T04:33:54.367Z,15.72
2023-08-03T04:34:58.245Z,15.77
2023-08-03T04:36:01.209Z,15.68
2023-08-03T04:37:07.742Z,15.76
2023-08-03T04:38:10.267Z,15.84
2023-08-03T04:39:17.190Z,15.87
2023-08-03T04:40:19.607Z,15.87
2023-08-03T04:41:22.681Z,15.91
2023-08-03T04:42:26.025Z,15.82
2023-08-03T04:43:28.554Z,15.81
2023-08-03T04:44:30.176Z,15.86
2023-08-03T04:45:31.928Z,15.82
2023-08-03T04:46:36.651Z,15.83
2023-08-03T04:47:39.331Z,15.97
2023-08-03T04:48:41.142Z,15.99
2023-08-03T04:49:44.041Z,15.85
2023-08-03T04:50:47.501Z,15.94
2023-08-03T04:51:51.320Z,16.02
2023-08-03T04:52:55.666Z,15.96
2023-08-03T04:53:58.220Z,16.01
2023-08-03T04:55:02.509Z,16.07
2023-08-03T04:56:04.443Z,16.16
2023-08-03T04:57:06.241Z,16.15
2023-08-03T04:58:12.578Z,16.19
2023-08-03T04:59:17.415Z,16.27
2023-08-03T05:00:22.936Z,16.25
2023-08-03T05:01:27.207Z,16.22
2023-08-03T05:02:30.287Z,16.27
2023-08-03T05:03:31.875Z,16.25
2023-08-03T05:04:33.638Z,16.29
2023-08-03T05:05:39.096Z,16.32
2023-08-03T05:06:41.917Z,16.27
2023-08-03T05:07:43.684Z,16.34
2023-08-03T05:08:45.191Z,16.24
2023-08-03T05:09:46.855Z,16.33
2023-08-03T05:10:48.492Z,16.33
2023-08-03T05:11:50.305Z,16.45
2023-08-03T05:12:54.828Z,16.42
2023-08-03T05:13:56.610Z,16.48
2023-08-03T05:14:58.874Z,16.46
2023-08-03T05:16:00.710Z,16.34
2023-08-03T05:17:02.523Z,16.33
2023-08-03T05:18:07.545Z,16.36
2023-08-03T05:19:09.354Z,16.42
2023-08-03T05:20:11.393Z,16.46
2023-08-03T05:21:15.726Z,16.40
2023-08-03T05:22:17.445Z,16.47
2023-08-03T05:23:20.642Z,16.46
2023-08-03T05:24:22.312Z,16.48
2023-08-03T05:25:23.833Z,16.44
2023-08-03T05:26:26.192Z,16.55
2023-08-03T05:27:27.948Z,16.56
2023-08-03T05:28:29.501Z,16.48
2023-08-03T05:29:31.475Z,16.56
2023-08-03T05:30:34.413Z,16.68
2023-08-03T05:31:38.658Z,16.68
2023-08-03T05:32:40.556Z,16.70
2023-08-03T05:33:42.628Z,16.78
2023-08-03T05:34:44.367Z,16.74
2023-08-03T05:35:51.051Z,16.81
2023-08-03T05:36:53.509Z,16.82
2023-08-03T05:37:57.434Z,16.84
2023-08-03T05:38:59.203Z,16.86
2023-08-03T05:40:03.902Z,16.82
2023-08-03T05:41:13.190Z,16.88
2023-08-03T05:42:15.720Z,16.88
2023-08-03T05:43:17.461Z,16.92
2023-08-03T05:44:19.042Z,16.96
2023-08-03T05:45:35.893Z,16.97
2023-08-03T05:46:39.924Z,17.06
2023-08-03T05:47:41.695Z,17.05
2023-08-03T05:48:43.638Z,17.03
2023-08-03T05:49:45.403Z,17.07
2023-08-03T05:50:47.978Z,17.04
2023-08-03T05:51:51.818Z,17.13
2023-08-03T05:52:55.649Z,17.15
2023-08-03T05:53:57.910Z,17.12
2023-08-03T05:55:01.952Z,17.15
2023-08-03T05:56:12.298Z,17.08
2023-08-03T05:57:14.628Z,17.14
2023-08-03T05:58:18.311Z,17.19
2023-08-03T05:59:22.657Z,17.20
2023-08-03T06:00:25.836Z,17.22
2023-08-03T06:01:27.599Z,17.28
2023-08-03T06:02:35.397Z,17.27
2023-08-03T06:03:42.444Z,17.33
2023-08-03T06:04:44.966Z,17.35
2023-08-03T06:05:50.505Z,17.32
2023-08-03T06:06:52.336Z,17.41
2023-08-03T06:07:55.286Z,17.45
2023-08-03T06:08:58.866Z,17.46
2023-08-03T06:10:00.557Z,17.45
2023-08-03T06:11:04.715Z,17.51
2023-08-03T06:12:15.286Z,17.55
2023-08-03T06:13:19.259Z,17.51
2023-08-03T06:14:23.616Z,17.59
2023-08-03T06:15:25.199Z,17.55
2023-08-03T06:16:27.149Z,17.57
2023-08-03T06:17:31.238Z,17.60
2023-08-03T06:18:35.154Z,17.67
2023-08-03T06:19:39.136Z,17.65
2023-08-03T06:20:44.776Z,17.69
2023-08-03T06:21:46.678Z,17.73
2023-08-03T06:22:48.570Z,17.76
2023-08-03T06:23:52.940Z,17.75
2023-08-03T06:24:57.052Z,17.82
2023-08-03T06:25:59.662Z,17.85
2023-08-03T06:27:01.524Z,17.86
2023-08-03T06:28:04.973Z,17.91
2023-08-03T06:29:10.334Z,18.01
2023-08-03T06:30:13.854Z,18.15
2023-08-03T06:31:17.988Z,18.28
2023-08-03T06:32:26.684Z,18.34
2023-08-03T06:33:28.452Z,18.44
2023-08-03T06:34:30.195Z,18.46
2023-08-03T06:35:39.486Z,18.56
2023-08-03T06:36:43.974Z,18.71
2023-08-03T06:37:45.639Z,18.75
2023-08-03T06:38:47.721Z,18.80
2023-08-03T06:39:51.642Z,18.91
2023-08-03T06:40:53.372Z,19.00
2023-08-03T06:41:55.271Z,19.07
2023-08-03T06:42:58.003Z,19.03
2023-08-03T06:44:01.230Z,19.13
2023-08-03T06:45:03.073Z,19.22
2023-08-03T06:46:06.133Z,19.35
2023-08-03T06:47:07.877Z,19.38
2023-08-03T06:48:09.915Z,19.39
2023-08-03T06:49:13.990Z,19.34
2023-08-03T06:50:15.795Z,19.43
2023-08-03T06:51:21.438Z,19.53
2023-08-03T06:52:23.237Z,19.53
2023-08-03T06:53:27.202Z,19.50
2023-08-03T06:54:29.822Z,19.60
2023-08-03T06:55:31.982Z,19.62
2023-08-03T06:56:37.842Z,19.61
2023-08-03T06:57:42.873Z,19.59
2023-08-03T06:58:47.227Z,19.42
2023-08-03T06:59:48.750Z,19.24
2023-08-03T07:00:50.990Z,19.28
2023-08-03T07:01:55.109Z,19.37
2023-08-03T07:02:59.106Z,19.34
2023-08-03T07:04:01.203Z,19.37
2023-08-03T07:05:04.089Z,19.32
2023-08-03T07:06:08.444Z,19.33
2023-08-03T07:07:10.198Z,19.30
2023-08-03T07:08:11.966Z,19.19
2023-08-03T07:09:13.665Z,19.24
2023-08-03T07:10:17.846Z,19.27
2023-08-03T07:11:19.537Z,19.23
2023-08-03T07:12:23.702Z,19.14
2023-08-03T07:13:27.731Z,19.17
2023-08-03T07:14:29.460Z,19.18
2023-08-03T07:15:35.367Z,19.04
2023-08-03T07:16:39.570Z,19.13
2023-08-03T07:17:41.525Z,19.08
2023-08-03T07:18:43.340Z,19.11
2023-08-03T07:19:45.287Z,19.15
2023-08-03T07:20:46.969Z,19.16
2023-08-03T07:21:48.565Z,19.12
2023-08-03T07:22:50.293Z,19.17
2023-08-03T07:23:52.134Z,19.16
2023-08-03T07:24:57.920Z,19.08
2023-08-03T07:26:02.373Z,19.10
2023-08-03T07:27:04.453Z,19.11
2023-08-03T07:28:06.163Z,19.00
2023-08-03T07:29:10.229Z,19.08
2023-08-03T07:30:12.651Z,19.11
2023-08-03T07:31:17.469Z,19.11
2023-08-03T07:32:19.111Z,19.13
2023-08-03T07:33:20.657Z,19.07
2023-08-03T07:34:23.057Z,19.15
2023-08-03T07:35:24.676Z,19.16
2023-08-03T07:36:26.386Z,19.01
2023-08-03T07:37:30.815Z,19.11
2023-08-03T07:38:32.506Z,19.18
2023-08-03T07:39:34.628Z,19.09
2023-08-03T07:40:39.121Z,19.19
2023-08-03T07:41:43.266Z,19.21
2023-08-03T07:42:45.194Z,19.24
2023-08-03T07:43:48.100Z,19.02
2023-08-03T07:44:55.495Z,18.96
2023-08-03T07:45:57.201Z,19.11
2023-08-03T07:47:01.209Z,19.14
2023-08-03T07:48:02.721Z,19.06
2023-08-03T07:49:06.938Z,19.13
2023-08-03T07:50:08.824Z,19.19
2023-08-03T07:51:12.693Z,19.18
2023-08-03T07:52:14.592Z,19.16
2023-08-03T07:53:16.217Z,19.18
2023-08-03T07:54:17.916Z,19.28
2023-08-03T07:55:19.783Z,19.37
2023-08-03T07:56:22.968Z,19.36
2023-08-03T07:57:24.626Z,19.32
2023-08-03T07:58:26.311Z,19.34
2023-08-03T07:59:30.142Z,19.41
2023-08-03T08:00:31.853Z,19.44
2023-08-03T08:01:33.970Z,19.38
2023-08-03T08:02:38.415Z,19.35
2023-08-03T08:03:41.293Z,19.41
2023-08-03T08:04:50.524Z,19.40
2023-08-03T08:06:04.103Z,19.47
2023-08-03T08:07:06.955Z,19.49
2023-08-03T08:08:10.914Z,19.48
2023-08-03T08:09:12.495Z,19.40
2023-08-03T08:10:14.321Z,19.49
2023-08-03T08:11:18.264Z,19.58
2023-08-03T08:12:20.013Z,19.41
2023-08-03T08:13:21.603Z,19.41
2023-08-03T08:14:25.710Z,19.39
2023-08-03T08:15:29.130Z,19.52
2023-08-03T08:16:31.418Z,19.57
2023-08-03T08:17:33.138Z,19.60
2023-08-03T08:18:35.499Z,19.58
2023-08-03T08:19:39.463Z,19.66
2023-08-03T08:20:41.205Z,19.64
2023-08-03T08:21:43.162Z,19.71
2023-08-03T08:22:45.254Z,19.72
2023-08-03T08:23:47.107Z,19.77
2023-08-03T08:24:51.142Z,19.79
2023-08-03T08:25:52.915Z,19.81
2023-08-03T08:26:55.238Z,19.92
2023-08-03T08:27:57.133Z,19.91
2023-08-03T08:29:05.053Z,19.92
2023-08-03T08:30:09.511Z,19.95
2023-08-03T08:31:11.603Z,19.93
2023-08-03T08:32:13.483Z,19.89
2023-08-03T08:33:16.870Z,19.91
2023-08-03T08:34:18.686Z,19.89
2023-08-03T08:35:20.342Z,19.84
2023-08-03T08:36:24.116Z,19.94
2023-08-03T08:37:26.040Z,19.70
2023-08-03T08:38:27.814Z,19.89
2023-08-03T08:39:30.927Z,19.89
2023-08-03T08:40:36.895Z,19.90
2023-08-03T08:41:42.474Z,19.93
2023-08-03T08:42:55.390Z,19.96
2023-08-03T08:43:59.372Z,20.04
2023-08-03T08:45:01.032Z,20.02
2023-08-03T08:46:02.673Z,19.95
2023-08-03T08:47:05.709Z,19.98
2023-08-03T08:50:22.351Z,19.94
2023-08-03T08:52:31.012Z,19.80
2023-08-03T08:54:17.913Z,19.87
2023-08-03T09:00:03.699Z,19.58
2023-08-03T09:01:05.958Z,19.74
2023-08-03T09:02:10.469Z,19.63
2023-08-03T09:03:13.517Z,19.71
2023-08-03T09:06:46.443Z,19.53
2023-08-03T09:08:08.670Z,19.64
2023-08-03T09:09:10.394Z,19.50
2023-08-03T09:10:13.306Z,19.52
2023-08-03T09:11:14.984Z,19.55
2023-08-03T09:12:27.084Z,19.57
2023-08-03T09:13:33.097Z,19.65
2023-08-03T09:14:50.168Z,19.55
2023-08-03T09:15:52.118Z,19.71
2023-08-03T09:16:56.343Z,19.71
2023-08-03T09:18:05.766Z,19.86
2023-08-03T09:19:09.635Z,19.83
2023-08-03T09:25:09.338Z,19.64
2023-08-03T09:26:12.752Z,19.76
2023-08-03T09:27:18.031Z,19.74
2023-08-03T09:29:39.236Z,19.72
2023-08-03T09:32:06.096Z,19.79
2023-08-03T09:34:43.241Z,19.97
2023-08-03T09:37:55.746Z,20.20
2023-08-03T09:40:21.128Z,20.30
2023-08-03T09:42:42.571Z,20.18
2023-08-03T09:43:48.835Z,20.18
2023-08-03T09:44:51.846Z,20.22
2023-08-03T09:45:56.925Z,20.27
2023-08-03T09:47:00.931Z,20.16
2023-08-03T09:48:03.453Z,20.30
2023-08-03T09:50:11.156Z,20.36
2023-08-03T09:51:13.755Z,20.23
2023-08-03T09:52:49.411Z,20.21
2023-08-03T09:53:45.475Z,20.28
2023-08-03T09:56:04.902Z,20.38
2023-08-03T09:58:17.634Z,20.48
2023-08-03T09:59:27.205Z,20.34
2023-08-03T10:00:30.085Z,20.52
2023-08-03T10:01:33.779Z,20.49
2023-08-03T10:02:45.233Z,20.61
2023-08-03T10:03:51.673Z,20.60
2023-08-03T10:05:01.873Z,20.65
2023-08-03T10:06:06.059Z,20.56
2023-08-03T10:07:10.492Z,20.56
2023-08-03T10:08:36.053Z,20.59
2023-08-03T10:09:45.663Z,20.71
2023-08-03T10:10:50.136Z,20.77
2023-08-03T10:11:55.217Z,20.77
2023-08-03T10:13:03.369Z,20.66
2023-08-03T10:14:06.255Z,20.75
2023-08-03T10:15:10.404Z,20.71
2023-08-03T10:16:12.650Z,20.79
2023-08-03T10:17:15.334Z,20.85
2023-08-03T10:18:20.371Z,20.94
2023-08-03T10:19:26.096Z,20.94
2023-08-03T10:20:30.417Z,21.06
2023-08-03T10:21:35.744Z,21.06
2023-08-03T10:22:37.479Z,21.14
2023-08-03T10:23:46.543Z,21.15
2023-08-03T10:25:20.539Z,21.02
2023-08-03T10:26:25.543Z,20.97
2023-08-03T10:27:27.317Z,21.06
2023-08-03T10:28:49.390Z,20.81
2023-08-03T10:29:51.036Z,20.66
2023-08-03T10:31:06.119Z,20.79
2023-08-03T10:32:08.137Z,20.86
2023-08-03T10:33:09.824Z,20.85
2023-08-03T10:34:13.517Z,20.55
2023-08-03T10:35:39.231Z,20.67
2023-08-03T10:36:47.880Z,20.79
2023-08-03T10:37:51.187Z,20.83
2023-08-03T10:38:58.757Z,20.80
2023-08-03T10:40:01.975Z,20.83
2023-08-03T10:41:22.934Z,20.85
2023-08-03T10:42:36.203Z,20.74
2023-08-03T10:43:38.597Z,20.80
2023-08-03T10:44:42.680Z,20.75
2023-08-03T10:45:44.647Z,20.81
2023-08-03T10:46:49.460Z,20.84
2023-08-03T10:47:51.710Z,20.72
2023-08-03T10:48:53.582Z,20.80
2023-08-03T10:49:57.532Z,20.82
2023-08-03T10:51:04.124Z,20.77
2023-08-03T10:52:18.804Z,20.57
2023-08-03T10:53:20.703Z,20.62
2023-08-03T10:54:29.350Z,20.50
2023-08-03T10:55:30.982Z,20.52
2023-08-03T10:56:32.676Z,20.48
2023-08-03T10:57:34.313Z,20.58
2023-08-03T10:58:45.878Z,20.41
2023-08-03T10:59:53.803Z,20.52
2023-08-03T11:00:55.541Z,20.66
2023-08-03T11:01:57.255Z,20.71
2023-08-03T11:03:01.832Z,20.52
2023-08-03T11:04:03.797Z,20.58
2023-08-03T11:05:09.008Z,20.50
2023-08-03T11:06:16.801Z,20.56
2023-08-03T11:07:23.172Z,20.38
2023-08-03T11:08:25.036Z,20.55
2023-08-03T11:09:26.953Z,20.56
2023-08-03T11:10:28.730Z,20.57
2023-08-03T11:11:34.052Z,20.56
2023-08-03T11:12:36.345Z,20.46
2023-08-03T11:13:41.372Z,20.49
2023-08-03T11:14:44.661Z,20.61
2023-08-03T11:15:46.425Z,20.64
2023-08-03T11:16:49.550Z,20.61
2023-08-03T11:17:51.884Z,20.65
2023-08-03T11:18:54.190Z,20.65
2023-08-03T11:19:56.897Z,20.72
2023-08-03T11:20:58.690Z,20.70
2023-08-03T11:22:03.459Z,20.80
2023-08-03T11:23:05.174Z,20.59
2023-08-03T11:24:07.011Z,20.47
2023-08-03T11:25:08.998Z,20.58
2023-08-03T11:26:11.662Z,20.53
2023-08-03T11:27:14.012Z,20.49
2023-08-03T11:28:22.532Z,20.48
2023-08-03T11:29:24.485Z,20.49
2023-08-03T11:30:27.187Z,20.52
2023-08-03T11:31:28.946Z,20.50
2023-08-03T11:32:31.720Z,20.56
2023-08-03T11:33:36.207Z,20.59
2023-08-03T11:34:38.035Z,20.68
2023-08-03T11:35:41.616Z,20.57
2023-08-03T11:36:51.875Z,20.51
2023-08-03T11:37:53.665Z,20.63
2023-08-03T11:38:55.431Z,20.74
2023-08-03T11:40:00.341Z,20.23
2023-08-03T11:41:02.505Z,20.62
2023-08-03T11:42:04.986Z,20.70
2023-08-03T11:43:12.054Z,20.61
2023-08-03T11:44:13.797Z,20.70
2023-08-03T11:45:15.371Z,20.60
2023-08-03T11:46:22.473Z,20.61
2023-08-03T11:47:24.791Z,20.62
2023-08-03T11:48:27.258Z,20.76
2023-08-03T11:49:31.545Z,20.81
2023-08-03T11:50:33.393Z,20.80
2023-08-03T11:51:37.368Z,20.78
2023-08-03T11:52:39.214Z,20.84
2023-08-03T11:53:43.506Z,20.77
2023-08-03T11:54:46.364Z,20.70
2023-08-03T11:55:49.207Z,20.57
2023-08-03T11:56:51.812Z,20.62
2023-08-03T11:58:14.167Z,20.62
2023-08-03T11:59:15.984Z,20.71
2023-08-03T12:00:22.240Z,20.65
2023-08-03T12:01:29.279Z,20.65
2023-08-03T12:02:42.645Z,20.61
2023-08-03T12:03:44.556Z,20.78
2023-08-03T12:04:53.921Z,20.77
2023-08-03T12:06:07.115Z,20.80
2023-08-03T12:08:20.520Z,20.65
2023-08-03T12:09:30.493Z,20.56
2023-08-03T12:10:32.282Z,20.77
2023-08-03T12:12:41.964Z,20.84
2023-08-03T12:13:46.516Z,20.85
2023-08-03T12:14:48.287Z,20.98
2023-08-03T12:15:49.945Z,20.99
2023-08-03T12:16:58.191Z,20.90
2023-08-03T12:18:00.203Z,20.94
2023-08-03T12:19:03.350Z,21.03
2023-08-03T12:20:06.526Z,21.04
2023-08-03T12:21:10.843Z,21.10
2023-08-03T12:22:13.462Z,21.04
2023-08-03T12:23:15.227Z,21.11
2023-08-03T12:24:16.825Z,21.00
2023-08-03T12:25:18.715Z,21.16
2023-08-03T12:26:22.935Z,21.23
2023-08-03T12:27:24.731Z,21.25
2023-08-03T12:28:28.188Z,21.16
2023-08-03T12:29:30.505Z,20.95
2023-08-03T12:30:34.565Z,21.10
2023-08-03T12:31:38.762Z,21.17
2023-08-03T12:32:40.639Z,21.13
2023-08-03T12:33:42.413Z,21.01
2023-08-03T12:34:44.104Z,21.08
2023-08-03T12:35:45.693Z,20.91
2023-08-03T12:36:49.730Z,20.93
2023-08-03T12:37:57.398Z,20.98
2023-08-03T12:38:59.618Z,21.01
2023-08-03T12:40:01.397Z,21.16
2023-08-03T12:41:05.263Z,21.13
2023-08-03T12:42:09.679Z,21.20
2023-08-03T12:43:11.423Z,21.27
2023-08-03T12:44:13.321Z,21.30
2023-08-03T12:45:15.058Z,21.24
2023-08-03T12:46:17.858Z,21.22
2023-08-03T12:47:22.471Z,21.27
2023-08-03T12:48:24.371Z,21.41
2023-08-03T12:49:26.156Z,21.36
2023-08-03T12:50:28.041Z,21.27
2023-08-03T12:51:30.212Z,21.39
2023-08-03T12:52:34.383Z,21.41
2023-08-03T12:53:39.121Z,21.44
2023-08-03T12:54:42.905Z,21.45
2023-08-03T12:55:44.617Z,21.51
2023-08-03T12:56:47.743Z,21.57
2023-08-03T12:57:50.649Z,21.57
2023-08-03T12:58:52.440Z,21.62
2023-08-03T12:59:54.096Z,21.60
2023-08-03T13:01:01.250Z,21.67
2023-08-03T13:02:03.136Z,21.62
2023-08-03T13:03:05.373Z,21.65
2023-08-03T13:04:09.773Z,21.58
2023-08-03T13:05:14.135Z,21.62
2023-08-03T13:06:15.958Z,21.65
2023-08-03T13:07:18.308Z,21.62
2023-08-03T13:08:22.308Z,21.67
2023-08-03T13:09:26.240Z,21.46
2023-08-03T13:10:28.033Z,21.31
2023-08-03T13:11:34.093Z,21.33
2023-08-03T13:12:38.376Z,21.34
2023-08-03T13:13:40.078Z,21.35
2023-08-03T13:14:42.272Z,21.12
2023-08-03T13:15:49.782Z,21.15
2023-08-03T13:16:51.691Z,21.27
2023-08-03T13:17:57.941Z,21.35
2023-08-03T13:19:01.781Z,21.44
2023-08-03T13:20:03.864Z,21.23
2023-08-03T13:21:06.869Z,21.01
2023-08-03T13:22:08.602Z,21.26
2023-08-03T13:23:10.423Z,21.34
2023-08-03T13:24:12.084Z,21.34
2023-08-03T13:25:13.798Z,21.42
2023-08-03T13:26:15.528Z,21.36
2023-08-03T13:27:17.753Z,21.38
2023-08-03T13:28:19.415Z,21.34
2023-08-03T13:29:21.833Z,21.26
2023-08-03T13:30:23.733Z,21.18
2023-08-03T13:31:25.421Z,21.26
2023-08-03T13:32:27.291Z,21.12
2023-08-03T13:33:28.955Z,21.14
2023-08-03T13:34:30.566Z,21.12
2023-08-03T13:35:32.318Z,21.17
2023-08-03T13:36:37.478Z,21.21
2023-08-03T13:37:39.186Z,21.40
2023-08-03T13:38:40.895Z,21.40
2023-08-03T13:39:44.970Z,21.30
2023-08-03T13:40:46.718Z,21.43
2023-08-03T13:41:50.663Z,21.39
2023-08-03T13:42:52.321Z,21.48
2023-08-03T13:43:53.857Z,21.53
2023-08-03T13:44:56.616Z,21.48
2023-08-03T13:45:58.331Z,21.57
2023-08-03T13:47:06.041Z,21.51
2023-08-03T13:48:07.957Z,21.72
2023-08-03T13:49:11.945Z,21.82
2023-08-03T13:50:16.723Z,21.91
2023-08-03T13:51:18.842Z,21.90
2023-08-03T13:52:20.772Z,21.93
2023-08-03T13:53:22.481Z,21.97
2023-08-03T13:54:24.241Z,22.02
2023-08-03T13:55:25.947Z,22.05
2023-08-03T13:57:34.993Z,22.14
2023-08-03T13:59:44.222Z,22.26
2023-08-03T14:00:46.778Z,22.35
2023-08-03T14:02:02.305Z,22.41
2023-08-03T14:03:06.252Z,22.55
2023-08-03T14:04:16.336Z,22.63
2023-08-03T14:05:42.499Z,22.67
2023-08-03T14:12:16.719Z,22.39
2023-08-03T14:13:18.770Z,22.53
2023-08-03T14:16:33.095Z,22.70
2023-08-03T14:19:44.325Z,22.68
2023-08-03T14:21:53.565Z,22.85
2023-08-03T14:22:55.993Z,22.67
2023-08-03T14:26:06.888Z,22.85
2023-08-03T14:27:23.101Z,22.88
2023-08-03T14:29:29.967Z,22.92
2023-08-03T14:30:31.648Z,23.00
2023-08-03T14:31:33.607Z,23.05